sensor_id;sensor_type;location;lat;lon;timestamp;P1;durP1;ratioP1;P2;durP2;ratioP2
70908;SDS011;58554;52.006;5.926;2024-01-30T00:00:21;21.20;;;11.33;;
70908;SDS011;58554;52.006;5.926;2024-01-30T00:02:48;20.17;;;11.10;;
70908;SDS011;58554;52.006;5.926;2024-01-30T00:05:15;20.08;;;10.75;;
70908;SDS011;58554;52.006;5.926;2024-01-30T00:07:41;21.63;;;10.93;;
70908;SDS011;58554;52.006;5.926;2024-01-30T00:10:08;21.58;;;10.52;;
70908;SDS011;58554;52.006;5.926;2024-01-30T00:12:37;19.23;;;10.52;;
70908;SDS011;58554;52.006;5.926;2024-01-30T00:15:04;19.47;;;10.03;;
70908;SDS011;58554;52.006;5.926;2024-01-30T00:17:31;20.63;;;10.23;;
70908;SDS011;58554;52.006;5.926;2024-01-30T00:19:58;19.53;;;10.67;;
70908;SDS011;58554;52.006;5.926;2024-01-30T00:22:24;21.00;;;10.23;;
70908;SDS011;58554;52.006;5.926;2024-01-30T00:24:50;18.58;;;10.48;;
70908;SDS011;58554;52.006;5.926;2024-01-30T00:27:17;19.17;;;9.90;;
70908;SDS011;58554;52.006;5.926;2024-01-30T00:29:46;21.13;;;10.23;;
70908;SDS011;58554;52.006;5.926;2024-01-30T00:32:12;17.80;;;10.13;;
70908;SDS011;58554;52.006;5.926;2024-01-30T00:34:39;18.03;;;9.43;;
70908;SDS011;58554;52.006;5.926;2024-01-30T00:37:05;19.02;;;10.43;;
70908;SDS011;58554;52.006;5.926;2024-01-30T00:39:32;18.33;;;10.00;;
70908;SDS011;58554;52.006;5.926;2024-01-30T00:41:58;20.00;;;10.30;;
70908;SDS011;58554;52.006;5.926;2024-01-30T00:44:25;18.47;;;10.20;;
70908;SDS011;58554;52.006;5.926;2024-01-30T00:46:54;20.60;;;10.90;;
70908;SDS011;58554;52.006;5.926;2024-01-30T00:49:20;24.33;;;11.73;;
70908;SDS011;58554;52.006;5.926;2024-01-30T00:51:47;18.33;;;10.80;;
70908;SDS011;58554;52.006;5.926;2024-01-30T00:54:13;19.77;;;11.13;;
70908;SDS011;58554;52.006;5.926;2024-01-30T00:56:40;18.10;;;10.07;;
70908;SDS011;58554;52.006;5.926;2024-01-30T00:59:06;19.35;;;10.68;;
70908;SDS011;58554;52.006;5.926;2024-01-30T01:01:33;23.60;;;10.67;;
70908;SDS011;58554;52.006;5.926;2024-01-30T01:04:02;20.77;;;10.30;;
70908;SDS011;58554;52.006;5.926;2024-01-30T01:06:28;22.02;;;11.15;;
70908;SDS011;58554;52.006;5.926;2024-01-30T01:08:55;19.00;;;10.10;;
70908;SDS011;58554;52.006;5.926;2024-01-30T01:11:21;18.08;;;10.60;;
70908;SDS011;58554;52.006;5.926;2024-01-30T01:13:47;21.50;;;11.03;;
70908;SDS011;58554;52.006;5.926;2024-01-30T01:16:14;19.98;;;10.70;;
70908;SDS011;58554;52.006;5.926;2024-01-30T01:18:40;21.57;;;10.40;;
70908;SDS011;58554;52.006;5.926;2024-01-30T01:21:09;19.40;;;10.53;;
70908;SDS011;58554;52.006;5.926;2024-01-30T01:23:36;19.48;;;9.80;;
70908;SDS011;58554;52.006;5.926;2024-01-30T01:26:02;19.87;;;9.90;;
70908;SDS011;58554;52.006;5.926;2024-01-30T01:28:30;19.27;;;10.35;;
70908;SDS011;58554;52.006;5.926;2024-01-30T01:30:57;18.48;;;9.82;;
70908;SDS011;58554;52.006;5.926;2024-01-30T01:33:23;18.17;;;10.30;;
70908;SDS011;58554;52.006;5.926;2024-01-30T01:35:50;20.08;;;10.25;;
70908;SDS011;58554;52.006;5.926;2024-01-30T01:38:19;20.97;;;10.60;;
70908;SDS011;58554;52.006;5.926;2024-01-30T01:40:45;19.42;;;9.90;;
70908;SDS011;58554;52.006;5.926;2024-01-30T01:43:11;22.43;;;11.13;;
70908;SDS011;58554;52.006;5.926;2024-01-30T01:45:38;19.00;;;10.63;;
70908;SDS011;58554;52.006;5.926;2024-01-30T01:48:05;19.80;;;10.93;;
70908;SDS011;58554;52.006;5.926;2024-01-30T01:50:33;19.23;;;9.93;;
70908;SDS011;58554;52.006;5.926;2024-01-30T01:53:00;19.73;;;10.98;;
70908;SDS011;58554;52.006;5.926;2024-01-30T01:55:32;21.57;;;11.10;;
70908;SDS011;58554;52.006;5.926;2024-01-30T01:57:58;18.83;;;10.70;;
70908;SDS011;58554;52.006;5.926;2024-01-30T02:00:25;22.85;;;10.82;;
70908;SDS011;58554;52.006;5.926;2024-01-30T02:02:52;18.83;;;9.90;;
70908;SDS011;58554;52.006;5.926;2024-01-30T02:05:20;19.30;;;10.55;;
70908;SDS011;58554;52.006;5.926;2024-01-30T02:07:47;22.13;;;11.30;;
70908;SDS011;58554;52.006;5.926;2024-01-30T02:10:16;21.10;;;11.60;;
70908;SDS011;58554;52.006;5.926;2024-01-30T02:12:45;20.98;;;11.52;;
70908;SDS011;58554;52.006;5.926;2024-01-30T02:15:13;23.07;;;11.63;;
70908;SDS011;58554;52.006;5.926;2024-01-30T02:17:40;21.55;;;11.75;;
70908;SDS011;58554;52.006;5.926;2024-01-30T02:20:07;22.77;;;11.33;;
70908;SDS011;58554;52.006;5.926;2024-01-30T02:22:38;22.30;;;11.65;;
70908;SDS011;58554;52.006;5.926;2024-01-30T02:25:07;24.00;;;11.80;;
70908;SDS011;58554;52.006;5.926;2024-01-30T02:27:34;23.97;;;11.80;;
70908;SDS011;58554;52.006;5.926;2024-01-30T02:30:00;23.52;;;12.00;;
70908;SDS011;58554;52.006;5.926;2024-01-30T02:32:27;21.97;;;11.23;;
70908;SDS011;58554;52.006;5.926;2024-01-30T02:34:53;20.67;;;12.07;;
70908;SDS011;58554;52.006;5.926;2024-01-30T02:37:20;20.73;;;11.27;;
70908;SDS011;58554;52.006;5.926;2024-01-30T02:39:49;21.38;;;11.02;;
70908;SDS011;58554;52.006;5.926;2024-01-30T02:42:15;20.07;;;10.93;;
70908;SDS011;58554;52.006;5.926;2024-01-30T02:44:42;22.95;;;12.20;;
70908;SDS011;58554;52.006;5.926;2024-01-30T02:47:08;23.53;;;12.07;;
70908;SDS011;58554;52.006;5.926;2024-01-30T02:49:35;19.50;;;10.70;;
70908;SDS011;58554;52.006;5.926;2024-01-30T02:52:01;21.77;;;10.65;;
70908;SDS011;58554;52.006;5.926;2024-01-30T02:54:29;18.57;;;11.00;;
70908;SDS011;58554;52.006;5.926;2024-01-30T02:56:58;23.35;;;11.57;;
70908;SDS011;58554;52.006;5.926;2024-01-30T02:59:25;21.77;;;11.10;;
70908;SDS011;58554;52.006;5.926;2024-01-30T03:01:51;18.90;;;10.57;;
70908;SDS011;58554;52.006;5.926;2024-01-30T03:04:17;23.07;;;11.50;;
70908;SDS011;58554;52.006;5.926;2024-01-30T03:06:44;21.63;;;10.93;;
70908;SDS011;58554;52.006;5.926;2024-01-30T03:09:11;21.35;;;11.50;;
70908;SDS011;58554;52.006;5.926;2024-01-30T03:11:38;22.67;;;11.00;;
70908;SDS011;58554;52.006;5.926;2024-01-30T03:14:07;23.58;;;11.15;;
70908;SDS011;58554;52.006;5.926;2024-01-30T03:16:33;24.07;;;11.50;;
70908;SDS011;58554;52.006;5.926;2024-01-30T03:19:00;21.25;;;10.57;;
70908;SDS011;58554;52.006;5.926;2024-01-30T03:21:26;19.70;;;10.73;;
70908;SDS011;58554;52.006;5.926;2024-01-30T03:23:52;22.07;;;11.17;;
70908;SDS011;58554;52.006;5.926;2024-01-30T03:26:19;21.52;;;10.98;;
70908;SDS011;58554;52.006;5.926;2024-01-30T03:28:45;21.23;;;10.87;;
70908;SDS011;58554;52.006;5.926;2024-01-30T03:31:15;21.33;;;10.82;;
70908;SDS011;58554;52.006;5.926;2024-01-30T03:33:42;22.77;;;10.77;;
70908;SDS011;58554;52.006;5.926;2024-01-30T03:36:09;20.70;;;10.80;;
70908;SDS011;58554;52.006;5.926;2024-01-30T03:38:37;20.70;;;10.68;;
70908;SDS011;58554;52.006;5.926;2024-01-30T03:41:07;20.20;;;10.30;;
70908;SDS011;58554;52.006;5.926;2024-01-30T03:43:34;19.93;;;10.53;;
70908;SDS011;58554;52.006;5.926;2024-01-30T03:46:00;20.65;;;10.77;;
70908;SDS011;58554;52.006;5.926;2024-01-30T03:48:30;22.20;;;10.97;;
70908;SDS011;58554;52.006;5.926;2024-01-30T03:50:57;20.33;;;11.15;;
70908;SDS011;58554;52.006;5.926;2024-01-30T03:53:23;20.67;;;10.95;;
70908;SDS011;58554;52.006;5.926;2024-01-30T03:55:50;20.03;;;10.47;;
70908;SDS011;58554;52.006;5.926;2024-01-30T03:58:16;21.85;;;11.02;;
70908;SDS011;58554;52.006;5.926;2024-01-30T04:00:43;18.55;;;10.10;;
70908;SDS011;58554;52.006;5.926;2024-01-30T04:03:09;19.03;;;9.93;;
70908;SDS011;58554;52.006;5.926;2024-01-30T04:05:38;19.90;;;10.03;;
70908;SDS011;58554;52.006;5.926;2024-01-30T04:08:06;20.13;;;10.47;;
70908;SDS011;58554;52.006;5.926;2024-01-30T04:10:32;17.83;;;9.95;;
70908;SDS011;58554;52.006;5.926;2024-01-30T04:12:59;24.63;;;10.87;;
70908;SDS011;58554;52.006;5.926;2024-01-30T04:15:26;18.07;;;9.53;;
70908;SDS011;58554;52.006;5.926;2024-01-30T04:17:52;19.30;;;10.13;;
70908;SDS011;58554;52.006;5.926;2024-01-30T04:20:19;22.07;;;11.43;;
70908;SDS011;58554;52.006;5.926;2024-01-30T04:22:48;19.92;;;10.88;;
70908;SDS011;58554;52.006;5.926;2024-01-30T04:25:14;22.77;;;11.47;;
70908;SDS011;58554;52.006;5.926;2024-01-30T04:27:41;19.40;;;10.48;;
70908;SDS011;58554;52.006;5.926;2024-01-30T04:30:08;19.40;;;10.07;;
70908;SDS011;58554;52.006;5.926;2024-01-30T04:32:36;22.40;;;10.02;;
70908;SDS011;58554;52.006;5.926;2024-01-30T04:35:03;20.30;;;10.43;;
70908;SDS011;58554;52.006;5.926;2024-01-30T04:37:30;18.97;;;9.83;;
70908;SDS011;58554;52.006;5.926;2024-01-30T04:40:00;20.48;;;10.32;;
70908;SDS011;58554;52.006;5.926;2024-01-30T04:42:26;18.10;;;10.47;;
70908;SDS011;58554;52.006;5.926;2024-01-30T04:44:52;20.33;;;10.27;;
70908;SDS011;58554;52.006;5.926;2024-01-30T04:47:19;18.57;;;10.47;;
70908;SDS011;58554;52.006;5.926;2024-01-30T04:49:45;21.67;;;10.00;;
70908;SDS011;58554;52.006;5.926;2024-01-30T04:52:12;18.35;;;9.32;;
70908;SDS011;58554;52.006;5.926;2024-01-30T04:54:38;19.37;;;10.17;;
70908;SDS011;58554;52.006;5.926;2024-01-30T04:57:08;19.23;;;9.48;;
70908;SDS011;58554;52.006;5.926;2024-01-30T04:59:35;16.57;;;9.40;;
70908;SDS011;58554;52.006;5.926;2024-01-30T05:02:01;19.25;;;9.38;;
70908;SDS011;58554;52.006;5.926;2024-01-30T05:04:28;21.17;;;9.63;;
70908;SDS011;58554;52.006;5.926;2024-01-30T05:06:54;16.52;;;9.60;;
70908;SDS011;58554;52.006;5.926;2024-01-30T05:09:21;19.87;;;9.93;;
70908;SDS011;58554;52.006;5.926;2024-01-30T05:11:47;18.57;;;9.93;;
70908;SDS011;58554;52.006;5.926;2024-01-30T05:14:16;19.38;;;9.95;;
70908;SDS011;58554;52.006;5.926;2024-01-30T05:16:43;18.40;;;9.27;;
70908;SDS011;58554;52.006;5.926;2024-01-30T05:19:09;18.08;;;9.30;;
70908;SDS011;58554;52.006;5.926;2024-01-30T05:21:36;17.50;;;9.73;;
70908;SDS011;58554;52.006;5.926;2024-01-30T05:24:02;16.83;;;9.15;;
70908;SDS011;58554;52.006;5.926;2024-01-30T05:26:29;17.27;;;9.70;;
70908;SDS011;58554;52.006;5.926;2024-01-30T05:28:55;18.37;;;9.63;;
70908;SDS011;58554;52.006;5.926;2024-01-30T05:31:25;18.65;;;9.20;;
70908;SDS011;58554;52.006;5.926;2024-01-30T05:33:51;17.10;;;9.43;;
70908;SDS011;58554;52.006;5.926;2024-01-30T05:36:18;17.30;;;9.33;;
70908;SDS011;58554;52.006;5.926;2024-01-30T05:38:44;17.90;;;8.98;;
70908;SDS011;58554;52.006;5.926;2024-01-30T05:41:11;17.33;;;8.97;;
70908;SDS011;58554;52.006;5.926;2024-01-30T05:43:37;18.63;;;9.32;;
70908;SDS011;58554;52.006;5.926;2024-01-30T05:46:04;19.10;;;10.03;;
70908;SDS011;58554;52.006;5.926;2024-01-30T05:48:33;17.48;;;9.57;;
70908;SDS011;58554;52.006;5.926;2024-01-30T05:50:59;18.50;;;9.83;;
70908;SDS011;58554;52.006;5.926;2024-01-30T05:53:26;19.00;;;9.60;;
70908;SDS011;58554;52.006;5.926;2024-01-30T05:55:52;25.55;;;9.32;;
70908;SDS011;58554;52.006;5.926;2024-01-30T05:58:18;20.87;;;9.83;;
70908;SDS011;58554;52.006;5.926;2024-01-30T06:00:45;17.85;;;9.23;;
70908;SDS011;58554;52.006;5.926;2024-01-30T06:03:11;17.58;;;9.43;;
70908;SDS011;58554;52.006;5.926;2024-01-30T06:05:40;16.33;;;9.30;;
70908;SDS011;58554;52.006;5.926;2024-01-30T06:08:07;18.17;;;8.87;;
70908;SDS011;58554;52.006;5.926;2024-01-30T06:10:33;18.83;;;8.90;;
70908;SDS011;58554;52.006;5.926;2024-01-30T06:13:00;19.03;;;9.70;;
70908;SDS011;58554;52.006;5.926;2024-01-30T06:15:27;18.70;;;9.13;;
70908;SDS011;58554;52.006;5.926;2024-01-30T06:17:54;19.10;;;9.73;;
70908;SDS011;58554;52.006;5.926;2024-01-30T06:20:20;17.05;;;9.10;;
70908;SDS011;58554;52.006;5.926;2024-01-30T06:22:49;20.50;;;9.70;;
70908;SDS011;58554;52.006;5.926;2024-01-30T06:25:16;16.30;;;8.70;;
70908;SDS011;58554;52.006;5.926;2024-01-30T06:27:42;16.17;;;8.95;;
70908;SDS011;58554;52.006;5.926;2024-01-30T06:30:10;16.13;;;8.60;;
70908;SDS011;58554;52.006;5.926;2024-01-30T06:32:38;18.33;;;8.95;;
70908;SDS011;58554;52.006;5.926;2024-01-30T06:35:05;19.07;;;9.13;;
70908;SDS011;58554;52.006;5.926;2024-01-30T06:37:34;17.00;;;8.80;;
70908;SDS011;58554;52.006;5.926;2024-01-30T06:40:03;20.17;;;9.43;;
70908;SDS011;58554;52.006;5.926;2024-01-30T06:42:32;16.50;;;8.70;;
70908;SDS011;58554;52.006;5.926;2024-01-30T06:44:58;17.27;;;8.47;;
70908;SDS011;58554;52.006;5.926;2024-01-30T06:47:25;16.70;;;8.77;;
70908;SDS011;58554;52.006;5.926;2024-01-30T06:49:51;17.97;;;8.83;;
70908;SDS011;58554;52.006;5.926;2024-01-30T06:52:18;16.30;;;8.73;;
70908;SDS011;58554;52.006;5.926;2024-01-30T06:54:44;17.03;;;8.60;;
70908;SDS011;58554;52.006;5.926;2024-01-30T06:57:13;18.85;;;9.43;;
70908;SDS011;58554;52.006;5.926;2024-01-30T06:59:40;15.83;;;8.40;;
70908;SDS011;58554;52.006;5.926;2024-01-30T07:02:06;17.47;;;8.67;;
70908;SDS011;58554;52.006;5.926;2024-01-30T07:04:32;17.15;;;8.18;;
70908;SDS011;58554;52.006;5.926;2024-01-30T07:06:59;17.03;;;8.07;;
70908;SDS011;58554;52.006;5.926;2024-01-30T07:09:25;18.90;;;8.77;;
70908;SDS011;58554;52.006;5.926;2024-01-30T07:11:53;17.83;;;8.30;;
70908;SDS011;58554;52.006;5.926;2024-01-30T07:14:22;15.87;;;8.50;;
70908;SDS011;58554;52.006;5.926;2024-01-30T07:16:48;15.27;;;8.27;;
70908;SDS011;58554;52.006;5.926;2024-01-30T07:19:15;17.57;;;8.70;;
70908;SDS011;58554;52.006;5.926;2024-01-30T07:21:41;16.40;;;8.00;;
70908;SDS011;58554;52.006;5.926;2024-01-30T07:24:08;17.27;;;8.23;;
70908;SDS011;58554;52.006;5.926;2024-01-30T07:26:34;16.57;;;7.77;;
70908;SDS011;58554;52.006;5.926;2024-01-30T07:29:01;13.40;;;7.73;;
70908;SDS011;58554;52.006;5.926;2024-01-30T07:31:30;16.10;;;8.20;;
70908;SDS011;58554;52.006;5.926;2024-01-30T07:33:57;15.55;;;7.90;;
70908;SDS011;58554;52.006;5.926;2024-01-30T07:36:23;17.00;;;8.47;;
70908;SDS011;58554;52.006;5.926;2024-01-30T07:38:50;16.15;;;8.45;;
70908;SDS011;58554;52.006;5.926;2024-01-30T07:41:16;14.50;;;7.97;;
70908;SDS011;58554;52.006;5.926;2024-01-30T07:43:43;15.20;;;8.27;;
70908;SDS011;58554;52.006;5.926;2024-01-30T07:46:09;15.98;;;8.02;;
70908;SDS011;58554;52.006;5.926;2024-01-30T07:48:38;17.80;;;8.70;;
70908;SDS011;58554;52.006;5.926;2024-01-30T07:51:05;17.23;;;8.70;;
70908;SDS011;58554;52.006;5.926;2024-01-30T07:53:31;15.32;;;8.02;;
70908;SDS011;58554;52.006;5.926;2024-01-30T07:55:58;14.87;;;8.20;;
70908;SDS011;58554;52.006;5.926;2024-01-30T07:58:24;14.55;;;8.07;;
70908;SDS011;58554;52.006;5.926;2024-01-30T08:00:51;15.55;;;8.27;;
70908;SDS011;58554;52.006;5.926;2024-01-30T08:03:18;15.20;;;8.40;;
70908;SDS011;58554;52.006;5.926;2024-01-30T08:05:47;19.42;;;8.00;;
70908;SDS011;58554;52.006;5.926;2024-01-30T08:08:13;15.13;;;8.43;;
70908;SDS011;58554;52.006;5.926;2024-01-30T08:10:40;16.03;;;8.33;;
70908;SDS011;58554;52.006;5.926;2024-01-30T08:13:06;17.60;;;7.72;;
70908;SDS011;58554;52.006;5.926;2024-01-30T08:15:33;15.17;;;7.93;;
70908;SDS011;58554;52.006;5.926;2024-01-30T08:17:59;17.33;;;8.63;;
70908;SDS011;58554;52.006;5.926;2024-01-30T08:20:26;15.90;;;7.60;;
70908;SDS011;58554;52.006;5.926;2024-01-30T08:22:55;14.55;;;7.90;;
70908;SDS011;58554;52.006;5.926;2024-01-30T08:25:22;14.33;;;8.40;;
70908;SDS011;58554;52.006;5.926;2024-01-30T08:27:48;16.73;;;8.27;;
70908;SDS011;58554;52.006;5.926;2024-01-30T08:30:15;18.33;;;8.15;;
70908;SDS011;58554;52.006;5.926;2024-01-30T08:32:41;17.10;;;8.17;;
70908;SDS011;58554;52.006;5.926;2024-01-30T08:35:08;17.33;;;8.57;;
70908;SDS011;58554;52.006;5.926;2024-01-30T08:37:35;15.30;;;7.90;;
70908;SDS011;58554;52.006;5.926;2024-01-30T08:40:04;16.33;;;7.73;;
70908;SDS011;58554;52.006;5.926;2024-01-30T08:42:33;18.85;;;7.85;;
70908;SDS011;58554;52.006;5.926;2024-01-30T08:45:00;16.23;;;8.27;;
70908;SDS011;58554;52.006;5.926;2024-01-30T08:47:26;16.20;;;7.73;;
70908;SDS011;58554;52.006;5.926;2024-01-30T08:49:53;16.97;;;8.07;;
70908;SDS011;58554;52.006;5.926;2024-01-30T08:52:19;15.40;;;8.37;;
70908;SDS011;58554;52.006;5.926;2024-01-30T08:54:46;16.35;;;8.52;;
70908;SDS011;58554;52.006;5.926;2024-01-30T08:57:15;14.47;;;7.70;;
70908;SDS011;58554;52.006;5.926;2024-01-30T08:59:41;16.30;;;8.70;;
70908;SDS011;58554;52.006;5.926;2024-01-30T09:02:08;15.03;;;8.60;;
70908;SDS011;58554;52.006;5.926;2024-01-30T09:04:34;15.83;;;8.50;;
70908;SDS011;58554;52.006;5.926;2024-01-30T09:07:01;16.63;;;8.63;;
70908;SDS011;58554;52.006;5.926;2024-01-30T09:09:27;15.90;;;8.37;;
70908;SDS011;58554;52.006;5.926;2024-01-30T09:11:54;17.20;;;8.40;;
70908;SDS011;58554;52.006;5.926;2024-01-30T09:14:23;16.07;;;8.17;;
70908;SDS011;58554;52.006;5.926;2024-01-30T09:16:49;18.03;;;9.00;;
70908;SDS011;58554;52.006;5.926;2024-01-30T09:19:15;17.70;;;8.70;;
70908;SDS011;58554;52.006;5.926;2024-01-30T09:21:42;15.63;;;8.00;;
70908;SDS011;58554;52.006;5.926;2024-01-30T09:24:08;17.30;;;9.07;;
70908;SDS011;58554;52.006;5.926;2024-01-30T09:26:35;16.57;;;8.70;;
70908;SDS011;58554;52.006;5.926;2024-01-30T09:29:01;16.47;;;9.27;;
70908;SDS011;58554;52.006;5.926;2024-01-30T09:31:30;15.75;;;8.27;;
70908;SDS011;58554;52.006;5.926;2024-01-30T09:33:57;17.13;;;8.83;;
70908;SDS011;58554;52.006;5.926;2024-01-30T09:36:23;16.02;;;8.88;;
70908;SDS011;58554;52.006;5.926;2024-01-30T09:38:50;16.87;;;8.40;;
70908;SDS011;58554;52.006;5.926;2024-01-30T09:41:17;15.97;;;8.50;;
70908;SDS011;58554;52.006;5.926;2024-01-30T09:43:46;16.42;;;9.10;;
70908;SDS011;58554;52.006;5.926;2024-01-30T09:46:16;16.83;;;8.57;;
70908;SDS011;58554;52.006;5.926;2024-01-30T09:48:47;18.67;;;8.98;;
70908;SDS011;58554;52.006;5.926;2024-01-30T09:51:14;17.10;;;9.10;;
70908;SDS011;58554;52.006;5.926;2024-01-30T09:53:42;18.60;;;10.20;;
70908;SDS011;58554;52.006;5.926;2024-01-30T09:56:09;15.17;;;8.53;;
70908;SDS011;58554;52.006;5.926;2024-01-30T09:58:35;16.27;;;9.13;;
70908;SDS011;58554;52.006;5.926;2024-01-30T10:01:02;15.23;;;8.43;;
70908;SDS011;58554;52.006;5.926;2024-01-30T10:03:29;17.30;;;8.67;;
70908;SDS011;58554;52.006;5.926;2024-01-30T10:05:58;17.63;;;9.23;;
70908;SDS011;58554;52.006;5.926;2024-01-30T10:08:26;17.83;;;8.67;;
70908;SDS011;58554;52.006;5.926;2024-01-30T10:10:53;16.25;;;8.50;;
70908;SDS011;58554;52.006;5.926;2024-01-30T10:13:19;18.03;;;8.80;;
70908;SDS011;58554;52.006;5.926;2024-01-30T10:15:47;18.33;;;9.33;;
70908;SDS011;58554;52.006;5.926;2024-01-30T10:18:13;18.67;;;8.63;;
70908;SDS011;58554;52.006;5.926;2024-01-30T10:20:40;14.77;;;8.67;;
70908;SDS011;58554;52.006;5.926;2024-01-30T10:23:09;16.20;;;8.65;;
70908;SDS011;58554;52.006;5.926;2024-01-30T10:25:37;16.80;;;9.07;;
70908;SDS011;58554;52.006;5.926;2024-01-30T10:28:04;18.00;;;9.10;;
70908;SDS011;58554;52.006;5.926;2024-01-30T10:30:31;14.80;;;8.67;;
70908;SDS011;58554;52.006;5.926;2024-01-30T10:32:58;16.17;;;8.43;;
70908;SDS011;58554;52.006;5.926;2024-01-30T10:35:24;21.37;;;9.33;;
70908;SDS011;58554;52.006;5.926;2024-01-30T10:37:51;17.13;;;8.97;;
70908;SDS011;58554;52.006;5.926;2024-01-30T10:40:26;15.53;;;8.67;;
70908;SDS011;58554;52.006;5.926;2024-01-30T10:42:55;18.03;;;9.13;;
70908;SDS011;58554;52.006;5.926;2024-01-30T10:45:22;16.43;;;8.70;;
70908;SDS011;58554;52.006;5.926;2024-01-30T10:47:54;19.90;;;9.83;;
70908;SDS011;58554;52.006;5.926;2024-01-30T10:50:21;24.20;;;9.10;;
70908;SDS011;58554;52.006;5.926;2024-01-30T10:52:50;16.77;;;9.03;;
70908;SDS011;58554;52.006;5.926;2024-01-30T10:55:19;18.10;;;8.93;;
70908;SDS011;58554;52.006;5.926;2024-01-30T10:57:54;16.50;;;8.80;;
70908;SDS011;58554;52.006;5.926;2024-01-30T11:00:20;16.83;;;8.67;;
70908;SDS011;58554;52.006;5.926;2024-01-30T11:02:48;19.30;;;9.07;;
70908;SDS011;58554;52.006;5.926;2024-01-30T11:05:15;16.00;;;8.20;;
70908;SDS011;58554;52.006;5.926;2024-01-30T11:07:50;15.85;;;8.95;;
70908;SDS011;58554;52.006;5.926;2024-01-30T11:10:16;19.83;;;9.30;;
70908;SDS011;58554;52.006;5.926;2024-01-30T11:12:46;18.77;;;9.17;;
70908;SDS011;58554;52.006;5.926;2024-01-30T11:15:14;15.30;;;8.27;;
70908;SDS011;58554;52.006;5.926;2024-01-30T11:17:42;18.40;;;8.90;;
70908;SDS011;58554;52.006;5.926;2024-01-30T11:20:18;17.07;;;9.20;;
70908;SDS011;58554;52.006;5.926;2024-01-30T11:22:47;19.23;;;9.00;;
70908;SDS011;58554;52.006;5.926;2024-01-30T11:25:17;17.73;;;9.63;;
70908;SDS011;58554;52.006;5.926;2024-01-30T11:27:49;18.80;;;9.90;;
70908;SDS011;58554;52.006;5.926;2024-01-30T11:30:23;19.13;;;9.43;;
70908;SDS011;58554;52.006;5.926;2024-01-30T11:33:00;20.10;;;10.03;;
70908;SDS011;58554;52.006;5.926;2024-01-30T11:35:28;20.73;;;10.75;;
70908;SDS011;58554;52.006;5.926;2024-01-30T11:37:57;20.48;;;10.85;;
70908;SDS011;58554;52.006;5.926;2024-01-30T11:40:26;22.73;;;11.57;;
70908;SDS011;58554;52.006;5.926;2024-01-30T11:42:58;21.42;;;12.00;;
70908;SDS011;58554;52.006;5.926;2024-01-30T11:45:27;23.90;;;11.93;;
70908;SDS011;58554;52.006;5.926;2024-01-30T11:47:54;20.95;;;11.55;;
70908;SDS011;58554;52.006;5.926;2024-01-30T11:50:21;24.60;;;12.00;;
70908;SDS011;58554;52.006;5.926;2024-01-30T11:52:48;23.23;;;12.02;;
70908;SDS011;58554;52.006;5.926;2024-01-30T11:55:14;20.95;;;11.48;;
70908;SDS011;58554;52.006;5.926;2024-01-30T11:57:41;20.92;;;10.63;;
70908;SDS011;58554;52.006;5.926;2024-01-30T12:00:16;18.33;;;9.82;;
70908;SDS011;58554;52.006;5.926;2024-01-30T12:02:48;18.80;;;10.00;;
70908;SDS011;58554;52.006;5.926;2024-01-30T12:05:18;20.13;;;9.70;;
70908;SDS011;58554;52.006;5.926;2024-01-30T12:07:45;18.53;;;9.37;;
70908;SDS011;58554;52.006;5.926;2024-01-30T12:10:12;19.93;;;8.70;;
70908;SDS011;58554;52.006;5.926;2024-01-30T12:12:41;15.88;;;8.82;;
70908;SDS011;58554;52.006;5.926;2024-01-30T12:15:10;18.87;;;8.43;;
70908;SDS011;58554;52.006;5.926;2024-01-30T12:17:39;18.07;;;9.00;;
70908;SDS011;58554;52.006;5.926;2024-01-30T12:20:07;18.27;;;8.43;;
70908;SDS011;58554;52.006;5.926;2024-01-30T12:22:37;18.48;;;8.70;;
70908;SDS011;58554;52.006;5.926;2024-01-30T12:25:07;18.48;;;8.30;;
70908;SDS011;58554;52.006;5.926;2024-01-30T12:27:35;16.17;;;8.20;;
70908;SDS011;58554;52.006;5.926;2024-01-30T12:30:05;16.48;;;8.75;;
70908;SDS011;58554;52.006;5.926;2024-01-30T12:32:34;16.07;;;9.00;;
70908;SDS011;58554;52.006;5.926;2024-01-30T12:35:04;16.05;;;8.85;;
70908;SDS011;58554;52.006;5.926;2024-01-30T12:37:35;15.65;;;8.77;;
70908;SDS011;58554;52.006;5.926;2024-01-30T12:40:02;16.60;;;8.97;;
70908;SDS011;58554;52.006;5.926;2024-01-30T12:42:30;15.70;;;7.37;;
70908;SDS011;58554;52.006;5.926;2024-01-30T12:44:57;11.27;;;6.23;;
70908;SDS011;58554;52.006;5.926;2024-01-30T12:47:24;12.05;;;5.85;;
70908;SDS011;58554;52.006;5.926;2024-01-30T12:49:51;11.23;;;4.90;;
70908;SDS011;58554;52.006;5.926;2024-01-30T12:52:21;10.17;;;4.80;;
70908;SDS011;58554;52.006;5.926;2024-01-30T12:54:48;7.17;;;4.23;;
70908;SDS011;58554;52.006;5.926;2024-01-30T12:57:15;9.40;;;3.70;;
70908;SDS011;58554;52.006;5.926;2024-01-30T12:59:43;8.93;;;3.50;;
70908;SDS011;58554;52.006;5.926;2024-01-30T13:02:11;6.53;;;2.83;;
70908;SDS011;58554;52.006;5.926;2024-01-30T13:04:39;6.82;;;3.00;;
70908;SDS011;58554;52.006;5.926;2024-01-30T13:07:06;6.77;;;2.40;;
70908;SDS011;58554;52.006;5.926;2024-01-30T13:09:35;4.32;;;2.30;;
70908;SDS011;58554;52.006;5.926;2024-01-30T13:12:02;4.20;;;2.10;;
70908;SDS011;58554;52.006;5.926;2024-01-30T13:14:29;4.10;;;2.20;;
70908;SDS011;58554;52.006;5.926;2024-01-30T13:16:56;5.20;;;2.10;;
70908;SDS011;58554;52.006;5.926;2024-01-30T13:19:22;3.90;;;2.37;;
70908;SDS011;58554;52.006;5.926;2024-01-30T13:21:49;6.70;;;2.15;;
70908;SDS011;58554;52.006;5.926;2024-01-30T13:24:15;3.70;;;2.03;;
70908;SDS011;58554;52.006;5.926;2024-01-30T13:26:44;4.97;;;1.90;;
70908;SDS011;58554;52.006;5.926;2024-01-30T13:29:11;4.23;;;2.00;;
70908;SDS011;58554;52.006;5.926;2024-01-30T13:31:37;4.33;;;1.67;;
70908;SDS011;58554;52.006;5.926;2024-01-30T13:34:04;4.27;;;1.87;;
70908;SDS011;58554;52.006;5.926;2024-01-30T13:36:30;5.05;;;1.80;;
70908;SDS011;58554;52.006;5.926;2024-01-30T13:38:57;3.00;;;1.55;;
70908;SDS011;58554;52.006;5.926;2024-01-30T13:41:24;4.47;;;1.80;;
70908;SDS011;58554;52.006;5.926;2024-01-30T13:43:53;2.83;;;1.70;;
70908;SDS011;58554;52.006;5.926;2024-01-30T13:46:19;4.78;;;1.80;;
70908;SDS011;58554;52.006;5.926;2024-01-30T13:48:46;5.53;;;2.27;;
70908;SDS011;58554;52.006;5.926;2024-01-30T13:51:12;8.10;;;3.23;;
70908;SDS011;58554;52.006;5.926;2024-01-30T13:53:39;8.10;;;3.10;;
70908;SDS011;58554;52.006;5.926;2024-01-30T13:56:06;6.18;;;3.20;;
70908;SDS011;58554;52.006;5.926;2024-01-30T13:58:32;8.23;;;3.57;;
70908;SDS011;58554;52.006;5.926;2024-01-30T14:01:01;8.50;;;3.70;;
70908;SDS011;58554;52.006;5.926;2024-01-30T14:03:28;6.93;;;3.80;;
70908;SDS011;58554;52.006;5.926;2024-01-30T14:05:54;7.47;;;4.13;;
70908;SDS011;58554;52.006;5.926;2024-01-30T14:08:21;9.40;;;4.10;;
70908;SDS011;58554;52.006;5.926;2024-01-30T14:10:47;7.55;;;4.15;;
70908;SDS011;58554;52.006;5.926;2024-01-30T14:13:14;11.13;;;4.85;;
70908;SDS011;58554;52.006;5.926;2024-01-30T14:15:40;9.30;;;4.53;;
70908;SDS011;58554;52.006;5.926;2024-01-30T14:18:10;9.97;;;4.93;;
70908;SDS011;58554;52.006;5.926;2024-01-30T14:20:36;10.80;;;4.57;;
70908;SDS011;58554;52.006;5.926;2024-01-30T14:23:03;9.52;;;4.32;;
70908;SDS011;58554;52.006;5.926;2024-01-30T14:25:29;8.90;;;4.47;;
70908;SDS011;58554;52.006;5.926;2024-01-30T14:27:56;11.17;;;4.83;;
70908;SDS011;58554;52.006;5.926;2024-01-30T14:30:22;10.55;;;4.30;;